Latest Weather Observations for Barrow Island

IDW60801

Issued at 7:32 pm WST Friday 3 July 2015 (issued every 30 minutes, with the page automatically refreshed every 10 minutes)

About weather observations | Map of weather stations | Latest weather observations for WA | Other Formats
Station Details ID: 005094 Name: BARROW ISLAND AIRPORT Lat: -20.88 Lon: 115.41 Height: 6.4 m
Data from the previous 72 hours. | See also: Recent months at Barrow Island
Date/Time
WST
Temp
°C
App
Temp
°C
Dew
Point
Rel
Hum
%
Delta-T
°C
Wind Press
QNH
hPa
Press
MSL
hPa
Rain
since 9 am
mm
Dir
 
Spd
km/h
Gust
km/h
Spd
kts
Gust
kts
03/07:30pm 20.2 20.1 16.0 77 2.5 SW 11 13 6 7 1019.2 - 0.0
03/07:00pm 20.6 21.3 17.0 80 2.2 SSW 9 11 5 6 1018.9 - 0.0
03/06:30pm 21.1 21.4 15.9 72 3.1 SSW 9 11 5 6 1018.8 - 0.0
03/06:00pm 22.2 22.7 16.5 70 3.5 SW 9 9 5 5 1018.5 1018.5 0.0
03/05:30pm 23.8 23.3 14.8 57 5.4 SSW 11 13 6 7 1018.4 - 0.0
03/05:00pm 24.5 25.4 16.0 59 5.2 ENE 6 7 3 4 1018.2 - 0.0
03/04:30pm 24.7 24.3 15.3 56 5.7 NE 11 13 6 7 1018.0 - 0.0
03/04:00pm 24.8 24.2 15.7 57 5.5 ENE 13 15 7 8 1017.9 - 0.0
03/03:30pm 25.7 24.4 14.8 51 6.5 NE 15 17 8 9 1018.0 - 0.0
03/03:00pm 25.9 23.6 13.1 45 7.5 NNE 17 20 9 11 1018.1 1018.1 0.0
03/02:30pm 25.3 23.6 14.7 51 6.3 NE 17 22 9 12 1018.3 - 0.0
03/02:00pm 25.2 23.7 14.3 50 6.5 NE 15 17 8 9 1018.6 - 0.0
03/01:30pm 25.0 24.0 15.6 56 5.7 ENE 15 17 8 9 1018.8 - 0.0
03/01:00pm 25.0 23.6 14.5 52 6.2 ENE 15 19 8 10 1019.1 - 0.0
03/12:30pm 24.8 22.9 13.0 47 6.8 ENE 15 17 8 9 1019.6 - 0.0
03/12:00pm 25.1 24.5 15.7 56 5.7 E 13 17 7 9 1020.0 1020.0 0.0
03/11:30am 24.6 24.2 16.3 60 5.1 E 13 17 7 9 1020.5 - 0.0
03/11:00am 24.4 24.4 15.1 56 5.6 SE 9 11 5 6 1020.4 - 0.0
03/10:30am 24.6 24.8 15.8 58 5.3 ESE 9 11 5 6 1020.6 - 0.0
03/10:00am 24.0 24.1 15.5 59 5.1 E 9 13 5 7 1020.9 - 0.0
03/09:30am 23.3 23.1 14.8 59 5.0 ESE 9 11 5 6 1021.0 - 0.0
03/09:00am 23.2 23.5 16.0 64 4.3 SE 9 13 5 7 1020.8 1020.8 0.0
03/08:30am 22.8 22.7 16.1 66 4.0 SE 11 13 6 7 1020.6 - 0.0
03/08:00am 21.8 21.1 15.4 67 3.8 ESE 13 15 7 8 1020.4 - 0.0
03/07:30am 20.7 20.7 16.3 76 2.6 SE 11 13 6 7 1020.2 - 0.0
03/07:00am 19.9 20.4 16.5 81 2.0 SE 9 13 5 7 1019.9 - 0.0
03/06:30am 20.3 20.5 16.7 80 2.2 ESE 11 13 6 7 1019.7 - 0.0
03/06:00am 20.2 20.0 16.6 80 2.2 SE 13 13 7 7 1019.4 1019.4 0.0
03/05:30am 20.0 20.4 16.4 80 2.2 SSE 9 13 5 7 1019.2 - 0.0
03/05:00am 20.1 20.6 16.5 80 2.2 SSE 9 13 5 7 1019.2 - 0.0
03/04:30am 20.3 20.0 16.5 79 2.3 SE 13 15 7 8 1019.0 - 0.0
03/04:00am 20.7 21.4 17.1 80 2.2 SE 9 13 5 7 1019.1 - 0.0
03/03:30am 20.6 21.5 16.6 78 2.4 SE 7 13 4 7 1019.2 - 0.0
03/03:00am 20.6 20.9 17.0 80 2.2 SE 11 15 6 8 1019.3 1019.3 0.0
03/02:30am 21.0 21.0 17.2 79 2.3 SSE 13 17 7 9 1019.5 - 0.0
03/02:00am 21.1 20.0 17.3 79 2.3 SSE 19 22 10 12 1019.6 - 0.0
03/01:30am 21.2 20.4 18.4 84 1.7 S 20 24 11 13 1019.6 - 0.0
03/01:00am 19.6 17.7 15.7 78 2.3 S 20 28 11 15 1019.8 - 0.0
03/12:30am 20.9 22.0 18.8 88 1.3 SSE 11 15 6 8 1020.1 - 0.0
03/12:00am 20.1 21.2 18.0 88 1.3 SSE 9 13 5 7 1020.3 1020.3 0.0
 
Date/Time
WST
Temp
°C
App
Temp
°C
Dew
Point
Rel
Hum
%
Delta-T
°C
Wind Press
QNH
hPa
Press
MSL
hPa
Rain
since 9 am
mm
Dir
 
Spd
km/h
Gust
km/h
Spd
kts
Gust
kts
02/11:30pm 20.7 22.0 18.5 87 1.4 SSE 9 9 5 5 1020.4 - 0.0
02/11:00pm 20.0 21.1 17.2 84 1.7 S 7 9 4 5 1020.6 - 0.0
02/10:30pm 19.1 19.7 15.4 79 2.2 NE 6 7 3 4 1020.7 - 0.0
02/10:00pm 18.5 18.0 14.8 79 2.1 NNE 11 11 6 6 1020.5 - 0.0
02/09:30pm 18.1 17.0 14.4 79 2.1 N 13 15 7 8 1020.4 - 0.0
02/09:00pm 18.5 17.7 15.0 80 2.0 NNE 13 15 7 8 1020.3 1020.3 0.0
02/08:30pm 19.2 18.2 14.7 75 2.6 N 13 15 7 8 1020.2 - 0.0
02/08:00pm 19.9 18.3 14.9 73 2.9 N 17 17 9 9 1019.9 - 0.0
02/07:30pm 20.5 18.8 14.6 69 3.4 N 17 19 9 10 1019.5 - 0.0
02/07:00pm 21.0 18.6 13.9 64 4.1 N 19 20 10 11 1019.1 - 0.0
02/06:30pm 21.4 19.0 14.3 64 4.1 N 20 24 11 13 1018.9 - 0.0
02/06:00pm 23.5 20.5 12.5 50 6.3 NE 20 26 11 14 1018.8 1018.8 0.0
02/05:30pm 23.8 20.3 10.8 44 7.2 N 20 26 11 14 1018.7 - 0.0
02/05:00pm 24.7 23.7 13.3 49 6.6 NE 11 13 6 7 1018.7 - 0.0
02/04:30pm 25.0 25.1 15.6 56 5.7 E 9 11 5 6 1018.7 - 0.0
02/04:00pm 24.4 24.9 16.6 61 4.8 ESE 9 11 5 6 1018.6 - 0.0
02/03:30pm 25.1 26.0 16.5 59 5.3 E 7 9 4 5 1018.7 - 0.0
02/03:00pm 25.0 25.4 15.3 55 5.8 E 7 9 4 5 1018.9 1018.9 0.0
02/02:30pm 25.6 26.1 15.6 54 6.1 SE 7 9 4 5 1019.1 - 0.0
02/02:00pm 25.2 24.9 13.4 48 6.9 ESE 7 9 4 5 1019.4 - 0.0
02/01:30pm 25.0 24.8 13.5 48 6.7 ESE 7 9 4 5 1019.7 - 0.0
02/01:00pm 25.2 25.4 14.6 51 6.3 E 7 9 4 5 1020.1 - 0.0
02/12:30pm 24.9 23.8 14.4 52 6.2 ESE 13 17 7 9 1020.5 - 0.0
02/12:00pm 25.3 22.9 13.8 49 6.8 SE 19 20 10 11 1020.8 1020.8 0.0
02/11:30am 24.8 21.0 12.4 46 7.1 SE 24 28 13 15 1021.3 - 0.0
02/11:00am 24.8 21.7 12.1 45 7.3 SE 20 24 11 13 1021.6 - 0.0
02/10:30am 24.0 20.6 11.3 45 7.1 SE 20 24 11 13 1021.8 - 0.0
02/10:00am 23.5 19.6 12.2 49 6.4 SE 24 28 13 15 1021.9 - 0.0
02/09:30am 22.6 18.5 12.8 54 5.6 SE 26 30 14 16 1021.9 - 0.0
02/09:00am 22.7 18.9 13.7 56 5.2 SE 26 30 14 16 1021.7 1021.7 0.0
02/08:30am 22.7 18.4 13.2 55 5.5 SSE 28 32 15 17 1021.6 - 0.0
02/08:00am 22.2 17.8 13.0 56 5.3 SSE 28 32 15 17 1021.2 - 0.0
02/07:30am 21.7 17.0 12.0 54 5.4 SSE 28 32 15 17 1020.8 - 0.0
02/07:00am 21.4 16.3 12.0 55 5.3 SSE 30 35 16 19 1020.6 - 0.0
02/06:30am 21.3 16.8 12.7 58 4.9 SSE 28 32 15 17 1020.5 - 0.0
02/06:00am 21.2 17.2 11.8 55 5.2 SSE 24 30 13 16 1020.3 1020.3 0.0
02/05:30am 21.3 17.0 12.2 56 5.1 SSE 26 30 14 16 1020.2 - 0.0
02/05:00am 21.1 18.2 13.0 60 4.6 SSE 20 24 11 13 1020.0 - 0.0
02/04:30am 21.0 17.9 13.4 62 4.4 SSE 22 26 12 14 1020.2 - 0.0
02/04:00am 20.8 17.9 14.0 65 3.9 SSE 22 26 12 14 1020.4 - 0.0
02/03:30am 20.6 17.6 14.7 69 3.5 SE 24 26 13 14 1020.5 - 0.0
02/03:00am 20.3 17.3 14.9 71 3.2 SE 24 28 13 15 1020.5 1020.5 0.0
02/02:30am 20.2 18.7 16.8 81 2.1 SE 20 24 11 13 1020.6 - 0.0
02/02:00am 20.8 20.1 18.2 85 1.6 SE 19 28 10 15 1020.7 - 0.0
02/01:30am 19.0 19.1 15.5 80 2.1 E 9 13 5 7 1020.7 - 0.0
02/01:00am 18.7 18.9 14.8 78 2.3 ENE 7 9 4 5 1020.8 - 0.0
02/12:00am 15.5 12.5 10.5 72 2.6 NNW 17 20 9 11 1020.9 1020.9 0.0
 
Date/Time
WST
Temp
°C
App
Temp
°C
Dew
Point
Rel
Hum
%
Delta-T
°C
Wind Press
QNH
hPa
Press
MSL
hPa
Rain
since 9 am
mm
Dir
 
Spd
km/h
Gust
km/h
Spd
kts
Gust
kts
01/11:30pm 15.7 13.2 10.9 73 2.6 N 15 19 8 10 1021.0 - 0.0
01/11:00pm 17.7 16.8 12.6 72 2.8 N 9 11 5 6 1021.2 - 0.0
01/10:30pm 16.7 15.5 14.0 84 1.5 N 13 13 7 7 1021.3 - 0.0
01/10:00pm 16.8 16.3 14.8 88 1.2 NNW 11 13 6 7 1021.4 - 0.0
01/09:30pm 17.9 18.8 15.2 84 1.6 NNE 4 6 2 3 1021.4 - 0.0
01/09:00pm 18.9 19.5 15.8 82 1.8 ENE 7 11 4 6 1021.4 1021.4 0.0
01/08:30pm 20.9 21.8 17.5 81 2.1 ESE 9 11 5 6 1021.3 - 0.0
01/08:00pm 20.5 21.7 17.3 82 2.0 E 7 11 4 6 1021.2 - 0.0
01/07:30pm 21.0 21.2 17.6 81 2.1 E 13 15 7 8 1020.8 - 0.0
01/07:00pm 21.1 22.0 17.5 80 2.2 E 9 11 5 6 1020.6 - 0.0
01/06:30pm 21.1 21.9 17.3 79 2.3 E 9 11 5 6 1020.2 - 0.0
01/06:00pm 21.5 22.3 17.3 77 2.6 E 9 11 5 6 1020.0 1020.0 0.0
01/05:30pm 22.6 23.3 17.1 71 3.4 E 9 11 5 6 1019.9 - 0.0
01/05:00pm 23.2 23.4 16.7 67 4.0 E 11 13 6 7 1019.8 - 0.0
01/04:30pm 23.4 22.6 16.2 64 4.4 E 15 19 8 10 1019.7 - 0.0
01/04:00pm 23.6 22.5 15.4 60 4.9 E 15 19 8 10 1019.5 - 0.0
01/03:30pm 23.9 23.0 15.9 61 4.8 E 15 17 8 9 1019.4 - 0.0
01/03:00pm 23.9 23.8 14.9 57 5.4 E 9 13 5 7 1019.3 1019.3 0.0
01/02:30pm 24.2 22.9 15.9 59 5.0 ENE 17 19 9 10 1019.4 - 0.0
01/02:00pm 24.1 22.3 14.5 55 5.7 ENE 17 20 9 11 1019.6 - 0.0
01/01:30pm 23.8 21.9 14.2 55 5.7 ENE 17 19 9 10 1019.8 - 0.0
01/01:00pm 23.8 21.2 13.9 54 5.8 ENE 20 24 11 13 1020.0 - 0.0
01/12:30pm 23.7 20.5 13.0 51 6.2 E 22 24 12 13 1020.5 - 0.0
01/12:00pm 23.9 21.0 12.8 49 6.4 E 20 24 11 13 1021.0 1021.0 0.0
01/11:30am 23.7 21.6 13.6 53 5.9 E 17 20 9 11 1021.3 - 0.0
01/11:00am 23.4 21.1 13.0 52 6.0 E 17 19 9 10 1021.7 - 0.0
01/10:30am 22.8 20.9 14.1 58 5.1 ESE 17 20 9 11 1022.0 - 0.0
01/10:00am 23.2 21.5 13.7 55 5.5 SE 15 17 8 9 1022.2 - 0.0
01/09:30am 22.8 21.8 13.3 55 5.5 SE 11 13 6 7 1022.1 - 0.0
01/09:00am 22.3 21.1 12.8 55 5.4 ESE 11 13 6 7 1021.9 1021.9 0.0
01/08:30am 21.7 20.0 12.5 56 5.2 SE 13 13 7 7 1021.7 - 0.0
01/08:00am 20.9 19.3 12.8 60 4.6 ESE 13 15 7 8 1021.3 - 0.0
01/07:30am 20.2 18.6 12.9 63 4.1 ESE 13 17 7 9 1021.3 - 0.0
01/07:00am 19.4 17.7 13.6 69 3.3 SE 15 17 8 9 1020.9 - 0.0
01/06:30am 19.2 17.3 12.9 67 3.5 SE 15 17 8 9 1020.6 - 0.0
01/06:00am 19.1 18.1 13.3 69 3.3 SE 11 13 6 7 1020.3 1020.3 0.0
01/05:30am 19.2 17.9 13.6 70 3.2 SSE 13 15 7 8 1020.3 - 0.0
01/05:00am 19.3 18.4 14.8 75 2.6 SSE 13 15 7 8 1020.2 - 0.0
01/04:30am 19.3 18.6 14.3 73 2.9 SE 11 13 6 7 1020.2 - 0.0
01/04:00am 19.8 19.3 14.8 73 2.9 ESE 11 13 6 7 1020.2 - 0.0
01/03:30am 19.9 19.1 15.1 74 2.8 ESE 13 15 7 8 1020.4 - 0.0
01/03:00am 19.4 18.6 15.1 76 2.5 SE 13 15 7 8 1020.6 1020.6 0.0
01/02:30am 19.8 18.9 15.9 78 2.3 SE 15 19 8 10 1020.7 - 0.0
01/02:00am 19.7 18.6 16.3 81 2.0 SE 17 17 9 9 1020.8 - 0.0
01/01:30am 20.5 19.3 17.1 81 2.1 ESE 19 24 10 13 1021.0 - 0.0
01/01:00am 20.1 19.5 15.7 76 2.6 SE 13 17 7 9 1021.2 - 0.0
01/12:30am 19.7 19.5 15.8 78 2.3 SE 11 13 6 7 1021.2 - 0.0
01/12:00am 17.8 18.6 14.7 82 1.8 S 4 7 2 4 1021.1 1021.1 0.0
 
Date/Time
WST
Temp
°C
App
Temp
°C
Dew
Point
Rel
Hum
%
Delta-T
°C
Wind Press
QNH
hPa
Press
MSL
hPa
Rain
since 9 am
mm
Dir
 
Spd
km/h
Gust
km/h
Spd
kts
Gust
kts
30/11:30pm 17.7 17.7 15.1 85 1.5 SSW 9 13 5 7 1021.2 - 0.0
30/11:00pm 15.5 16.1 11.9 79 2.0 CALM 0 0 0 0 1021.1 - 0.0
30/10:30pm 15.7 16.4 12.1 79 2.0 CALM 0 0 0 0 1021.3 - 0.0
30/10:00pm 15.8 16.4 11.8 77 2.2 CALM 0 0 0 0 1021.4 - 0.0
30/09:30pm 16.1 16.6 11.7 75 2.4 CALM 0 0 0 0 1021.4 - 0.0
30/09:00pm 16.3 16.7 11.2 72 2.7 CALM 0 0 0 0 1021.4 1021.4 0.0
30/08:30pm 17.8 17.8 12.5 71 2.9 SW 4 6 2 3 1021.3 - 0.0
30/08:00pm 16.2 16.1 10.7 70 2.9 NNW 2 6 1 3 1021.0 - 0.0

Other Formats:

Comma delimited format used in spreadsheet applications
http://www.bom.gov.au/fwo/IDW60801/IDW60801.95304.axf

JavaScript Object Notation format (JSON) in row-major order
http://www.bom.gov.au/fwo/IDW60801/IDW60801.95304.json